createdAt,value
2018-05-26T00:01:47.618Z,11.48
2018-05-26T00:04:15.206Z,11.75
2018-05-26T00:06:42.789Z,10.15
2018-05-26T00:09:11.175Z,10.98
2018-05-26T00:11:38.762Z,11.48
2018-05-26T00:14:07.107Z,10.85
2018-05-26T00:16:34.710Z,10.65
2018-05-26T00:19:03.067Z,9.52
2018-05-26T00:21:30.658Z,9.98
2018-05-26T00:23:58.273Z,10.70
2018-05-26T00:26:25.871Z,10.32
2018-05-26T00:28:53.481Z,11.45
2018-05-26T00:31:21.110Z,11.63
2018-05-26T00:33:48.682Z,9.93
2018-05-26T00:36:16.265Z,11.45
2018-05-26T00:38:43.887Z,12.60
2018-05-26T00:41:11.474Z,12.18
2018-05-26T00:43:39.844Z,12.02
2018-05-26T00:46:07.464Z,12.68
2018-05-26T00:48:35.048Z,11.63
2018-05-26T00:51:02.617Z,9.82
2018-05-26T00:53:30.239Z,10.88
2018-05-26T00:55:57.829Z,10.93
2018-05-26T00:58:26.196Z,11.38
2018-05-26T01:00:53.807Z,10.63
2018-05-26T01:03:21.394Z,11.80
2018-05-26T01:05:48.976Z,11.00
2018-05-26T01:08:16.582Z,12.57
2018-05-26T01:10:44.175Z,11.63
2018-05-26T01:13:11.752Z,13.00
2018-05-26T01:15:39.383Z,11.18
2018-05-26T01:18:06.975Z,11.80
2018-05-26T01:20:34.563Z,12.05
2018-05-26T01:23:02.183Z,11.77
2018-05-26T01:25:29.769Z,12.02
2018-05-26T01:27:57.366Z,11.07
2018-05-26T01:30:24.981Z,11.88
2018-05-26T01:32:53.350Z,11.50
2018-05-26T01:35:20.970Z,11.35
2018-05-26T01:37:48.595Z,11.77
2018-05-26T01:40:16.189Z,13.15
2018-05-26T01:42:44.550Z,11.75
2018-05-26T01:45:12.167Z,13.00
2018-05-26T01:47:39.759Z,12.95
2018-05-26T01:50:07.374Z,11.95
2018-05-26T01:52:35.000Z,11.23
2018-05-26T01:55:02.590Z,11.20
2018-05-26T01:57:30.178Z,12.63
2018-05-26T01:59:57.786Z,12.65
2018-05-26T02:02:26.167Z,12.70
2018-05-26T02:04:53.745Z,11.15
2018-05-26T02:07:21.354Z,12.80
2018-05-26T02:09:48.933Z,11.38
2018-05-26T02:12:16.518Z,12.25
2018-05-26T02:14:44.126Z,11.52
2018-05-26T02:17:11.727Z,12.40
2018-05-26T02:19:39.331Z,13.68
2018-05-26T02:22:06.948Z,12.63
2018-05-26T02:24:34.523Z,11.80
2018-05-26T02:27:02.105Z,12.88
2018-05-26T02:29:30.489Z,14.18
2018-05-26T02:31:58.097Z,12.90
2018-05-26T02:34:25.692Z,13.90
2018-05-26T02:36:53.323Z,11.88
2018-05-26T02:39:21.670Z,13.60
2018-05-26T02:41:49.267Z,15.02
2018-05-26T02:44:16.874Z,13.95
2018-05-26T02:46:44.453Z,15.40
2018-05-26T02:49:12.045Z,12.80
2018-05-26T02:51:39.703Z,14.63
2018-05-26T02:54:07.282Z,15.07
2018-05-26T02:58:54.018Z,15.05
2018-05-26T03:01:21.599Z,15.63
2018-05-26T03:03:48.705Z,15.30
2018-05-26T03:06:22.007Z,16.77
2018-05-26T03:08:55.275Z,14.95
2018-05-26T03:11:28.487Z,15.48
2018-05-26T03:14:01.721Z,16.08
2018-05-26T03:16:34.945Z,16.85
2018-05-26T03:19:02.530Z,13.60
2018-05-26T03:21:30.113Z,15.70
2018-05-26T03:23:58.494Z,14.80
2018-05-26T03:26:26.086Z,14.80
2018-05-26T03:28:54.434Z,14.90
2018-05-26T03:31:22.061Z,15.95
2018-05-26T03:33:49.638Z,14.80
2018-05-26T03:36:17.262Z,15.30
2018-05-26T03:38:44.842Z,15.18
2018-05-26T03:41:12.435Z,15.32
2018-05-26T03:43:40.809Z,13.15
2018-05-26T03:46:08.434Z,14.73
2018-05-26T03:48:36.026Z,14.95
2018-05-26T03:51:03.617Z,15.68
2018-05-26T03:53:31.262Z,16.33
2018-05-26T03:56:10.633Z,16.40
2018-05-26T03:58:50.156Z,16.37
2018-05-26T04:01:17.738Z,13.45
2018-05-26T04:03:45.328Z,13.70
2018-05-26T04:06:12.978Z,15.07
2018-05-26T04:08:40.604Z,13.70
2018-05-26T04:11:08.199Z,14.02
2018-05-26T04:13:37.001Z,15.10
2018-05-26T04:16:05.350Z,12.65
2018-05-26T04:18:32.937Z,13.15
2018-05-26T04:21:00.551Z,14.95
2018-05-26T04:23:28.155Z,14.93
2018-05-26T04:25:55.744Z,15.50
2018-05-26T04:28:23.353Z,17.40
2018-05-26T04:30:51.693Z,12.68
2018-05-26T04:33:19.274Z,13.02
2018-05-26T04:35:46.902Z,12.70
2018-05-26T04:38:14.495Z,14.35
2018-05-26T04:40:42.107Z,14.80
2018-05-26T04:43:09.751Z,13.75
2018-05-26T04:45:37.343Z,14.98
2018-05-26T04:48:04.921Z,13.75
2018-05-26T04:50:32.534Z,13.07
2018-05-26T04:53:00.890Z,12.80
2018-05-26T04:55:28.449Z,13.50
2018-05-26T04:57:56.063Z,13.75
2018-05-26T05:00:23.631Z,13.47
2018-05-26T05:02:51.222Z,13.50
2018-05-26T05:05:18.842Z,12.43
2018-05-26T05:07:46.406Z,13.67
2018-05-26T05:10:13.966Z,13.50
2018-05-26T05:12:42.330Z,12.80
2018-05-26T05:15:10.709Z,13.48
2018-05-26T05:17:38.274Z,13.27
2018-05-26T05:20:05.875Z,13.00
2018-05-26T05:22:33.442Z,13.70
2018-05-26T05:25:01.008Z,13.30
2018-05-26T05:27:28.599Z,13.03
2018-05-26T05:29:57.185Z,14.50
2018-05-26T05:32:24.765Z,12.00
2018-05-26T05:34:53.118Z,14.53
2018-05-26T05:37:20.682Z,13.37
2018-05-26T05:39:48.266Z,14.50
2018-05-26T05:42:15.863Z,13.63
2018-05-26T05:44:43.423Z,13.70
2018-05-26T05:47:11.164Z,13.00
2018-05-26T05:49:38.792Z,13.23
2018-05-26T05:52:06.392Z,12.70
2018-05-26T05:54:34.051Z,13.70
2018-05-26T05:57:02.411Z,13.83
2018-05-26T05:59:29.981Z,14.70
2018-05-26T06:01:57.614Z,12.23
2018-05-26T06:04:25.189Z,13.70
2018-05-26T06:06:52.750Z,13.60
2018-05-26T06:09:20.314Z,13.07
2018-05-26T06:11:48.658Z,12.00
2018-05-26T06:14:16.227Z,11.53
2018-05-26T06:16:43.788Z,10.60
2018-05-26T06:19:11.386Z,11.80
2018-05-26T06:21:38.946Z,11.70
2018-05-26T06:24:06.510Z,10.50
2018-05-26T06:26:34.126Z,9.80
2018-05-26T06:29:02.478Z,9.47
2018-05-26T06:31:30.047Z,10.93
2018-05-26T06:33:57.630Z,9.87
2018-05-26T06:36:25.183Z,9.83
2018-05-26T06:38:52.736Z,8.33
2018-05-26T06:41:20.323Z,8.60
2018-05-26T06:43:47.884Z,9.33
2018-05-26T06:46:15.446Z,9.27
2018-05-26T06:48:43.794Z,10.40
2018-05-26T06:51:11.349Z,9.00
2018-05-26T06:53:38.907Z,10.53
2018-05-26T06:56:06.485Z,10.37
2018-05-26T06:58:34.042Z,10.23
2018-05-26T07:01:01.595Z,9.67
2018-05-26T07:03:29.938Z,10.63
2018-05-26T07:05:57.495Z,10.13
2018-05-26T07:08:25.056Z,10.40
2018-05-26T07:10:52.642Z,10.63
2018-05-26T07:13:20.204Z,10.00
2018-05-26T07:15:47.755Z,9.80
2018-05-26T07:18:15.335Z,12.70
2018-05-26T07:20:42.885Z,9.77
2018-05-26T07:23:11.203Z,9.77
2018-05-26T07:25:38.786Z,10.10
2018-05-26T07:28:06.331Z,8.33
2018-05-26T07:30:33.883Z,8.30
2018-05-26T07:33:02.223Z,10.10
2018-05-26T07:35:29.766Z,8.40
2018-05-26T07:37:58.084Z,8.00
2018-05-26T07:40:25.662Z,9.07
2018-05-26T07:42:53.207Z,7.93
2018-05-26T07:45:20.750Z,8.03
2018-05-26T07:47:48.323Z,7.40
2018-05-26T07:50:15.875Z,7.93
2018-05-26T07:52:43.436Z,7.90
2018-05-26T07:55:11.019Z,7.17
2018-05-26T07:57:38.631Z,6.67
2018-05-26T08:00:06.992Z,6.73
2018-05-26T08:02:34.572Z,7.40
2018-05-26T08:05:02.181Z,10.77
2018-05-26T08:07:29.739Z,7.17
2018-05-26T08:09:58.139Z,6.20
2018-05-26T08:12:25.687Z,6.80
2018-05-26T08:14:53.238Z,6.07
2018-05-26T08:17:20.850Z,5.93
2018-05-26T08:19:48.399Z,6.07
2018-05-26T08:22:15.961Z,5.97
2018-05-26T08:24:43.548Z,7.03
2018-05-26T08:27:11.093Z,6.43
2018-05-26T08:29:38.642Z,5.67
2018-05-26T08:32:06.222Z,5.10
2018-05-26T08:34:33.766Z,6.50
2018-05-26T08:37:01.314Z,5.10
2018-05-26T08:39:29.655Z,6.07
2018-05-26T08:41:57.197Z,5.30
2018-05-26T08:44:24.772Z,6.00
2018-05-26T08:46:52.386Z,6.30
2018-05-26T08:49:19.932Z,6.07
2018-05-26T08:51:47.479Z,6.03
2018-05-26T08:54:15.814Z,5.63
2018-05-26T08:56:43.355Z,6.23
2018-05-26T08:59:10.898Z,5.97
2018-05-26T09:01:39.248Z,5.50
2018-05-26T09:04:06.794Z,6.63
2018-05-26T09:06:34.350Z,6.33
2018-05-26T09:09:02.702Z,7.33
2018-05-26T09:11:30.260Z,6.93
2018-05-26T09:13:57.810Z,6.00
2018-05-26T09:16:25.392Z,5.97
2018-05-26T09:18:52.934Z,6.33
2018-05-26T09:21:20.490Z,6.97
2018-05-26T09:23:48.273Z,6.23
2018-05-26T09:26:15.873Z,6.33
2018-05-26T09:28:43.422Z,6.90
2018-05-26T09:31:11.006Z,7.00
2018-05-26T09:33:38.558Z,5.60
2018-05-26T09:36:06.858Z,5.80
2018-05-26T09:38:34.436Z,6.83
2018-05-26T09:41:01.983Z,5.90
2018-05-26T09:43:30.312Z,5.50
2018-05-26T09:45:57.899Z,6.37
2018-05-26T09:48:25.455Z,6.13
2018-05-26T09:50:53.059Z,6.70
2018-05-26T09:53:20.678Z,7.43
2018-05-26T09:55:48.235Z,7.23
2018-05-26T09:58:16.546Z,6.90
2018-05-26T10:00:44.113Z,6.30
2018-05-26T10:03:12.431Z,5.77
2018-05-26T10:05:39.979Z,6.50
2018-05-26T10:08:07.564Z,6.27
2018-05-26T10:10:35.113Z,5.80
2018-05-26T10:13:03.430Z,7.10
2018-05-26T10:15:31.008Z,6.37
2018-05-26T10:17:58.563Z,6.97
2018-05-26T10:20:26.123Z,6.20
2018-05-26T10:22:54.457Z,6.83
2018-05-26T10:25:22.006Z,6.47
2018-05-26T10:27:49.561Z,5.73
2018-05-26T10:30:17.903Z,5.90
2018-05-26T10:32:45.455Z,6.30
2018-05-26T10:35:13.023Z,6.67
2018-05-26T10:37:40.601Z,6.53
2018-05-26T10:40:08.159Z,6.27
2018-05-26T10:42:35.707Z,6.90
2018-05-26T10:45:04.051Z,7.10
2018-05-26T10:47:31.612Z,6.07
2018-05-26T10:49:59.274Z,5.80
2018-05-26T10:52:26.831Z,6.77
2018-05-26T10:54:54.376Z,6.77
2018-05-26T10:57:22.687Z,6.20
2018-05-26T10:59:50.336Z,7.00
2018-05-26T11:02:17.878Z,6.30
2018-05-26T11:04:45.426Z,5.70
2018-05-26T11:07:13.002Z,5.70
2018-05-26T11:09:40.553Z,6.20
2018-05-26T11:12:08.106Z,6.17
2018-05-26T11:14:36.459Z,5.00
2018-05-26T11:17:04.042Z,5.73
2018-05-26T11:19:31.598Z,5.00
2018-05-26T11:21:59.213Z,5.03
2018-05-26T11:24:27.546Z,5.97
2018-05-26T11:26:55.084Z,6.00
2018-05-26T11:29:23.424Z,5.80
2018-05-26T11:31:50.967Z,5.30
2018-05-26T11:34:18.507Z,7.67
2018-05-26T11:36:46.887Z,5.80
2018-05-26T11:39:14.439Z,7.10
2018-05-26T11:41:41.985Z,6.20
2018-05-26T11:44:09.568Z,6.23
2018-05-26T11:46:37.129Z,5.53
2018-05-26T11:49:04.675Z,6.13
2018-05-26T11:51:33.019Z,6.90
2018-05-26T11:54:00.659Z,6.20
2018-05-26T11:56:28.210Z,5.63
2018-05-26T11:58:56.547Z,11.53
2018-05-26T12:01:24.090Z,6.07
2018-05-26T12:03:51.632Z,5.33
2018-05-26T12:06:19.211Z,6.33
2018-05-26T12:08:47.524Z,6.37
2018-05-26T12:11:15.090Z,6.87
2018-05-26T12:13:42.676Z,6.50
2018-05-26T12:16:10.222Z,6.23
2018-05-26T12:18:38.545Z,5.93
2018-05-26T12:21:06.123Z,5.90
2018-05-26T12:23:33.660Z,6.70
2018-05-26T12:26:01.975Z,6.57
2018-05-26T12:28:29.563Z,6.90
2018-05-26T12:30:57.133Z,6.77
2018-05-26T12:33:24.686Z,6.30
2018-05-26T12:35:52.275Z,5.80
2018-05-26T12:38:19.829Z,6.63
2018-05-26T12:40:47.387Z,6.20
2018-05-26T12:43:15.730Z,6.00
2018-05-26T12:45:43.289Z,6.60
2018-05-26T12:48:10.945Z,6.80
2018-05-26T12:50:38.519Z,6.40
2018-05-26T12:53:06.075Z,6.10
2018-05-26T12:55:34.392Z,6.13
2018-05-26T12:58:01.983Z,6.30
2018-05-26T13:00:29.533Z,5.67
2018-05-26T13:02:57.096Z,6.03
2018-05-26T13:05:24.671Z,8.20
2018-05-26T13:07:52.228Z,13.30
2018-05-26T13:10:19.805Z,8.67
2018-05-26T13:12:47.367Z,6.37
2018-05-26T13:15:15.815Z,6.67
2018-05-26T13:17:43.382Z,7.10
2018-05-26T13:20:10.950Z,6.30
2018-05-26T13:22:38.527Z,7.27
2018-05-26T13:25:06.097Z,7.40
2018-05-26T13:27:33.843Z,7.83
2018-05-26T13:30:01.414Z,8.23
2018-05-26T13:32:29.811Z,8.70
2018-05-26T13:34:57.652Z,7.53
2018-05-26T13:37:25.261Z,7.50
2018-05-26T13:39:52.867Z,7.37
2018-05-26T13:42:20.461Z,7.50
2018-05-26T13:44:48.047Z,7.43
2018-05-26T13:47:15.644Z,7.40
2018-05-26T13:49:44.202Z,7.40
2018-05-26T13:52:11.799Z,7.17
2018-05-26T13:54:39.377Z,7.37
2018-05-26T13:57:08.115Z,7.20
2018-05-26T13:59:35.689Z,7.57
2018-05-26T14:02:03.230Z,6.90
2018-05-26T14:04:31.552Z,6.43
2018-05-26T14:06:59.138Z,7.43
2018-05-26T14:09:26.695Z,6.60
2018-05-26T14:11:54.608Z,6.77
2018-05-26T14:14:22.158Z,7.53
2018-05-26T14:16:49.730Z,7.03
2018-05-26T14:19:17.305Z,6.80
2018-05-26T14:21:44.864Z,6.90
2018-05-26T14:24:12.666Z,6.80
2018-05-26T14:26:40.239Z,7.20
2018-05-26T14:29:07.781Z,7.80
2018-05-26T14:31:35.397Z,6.97
2018-05-26T14:34:02.971Z,6.60
2018-05-26T14:36:30.547Z,7.20
2018-05-26T14:38:58.087Z,6.67
2018-05-26T14:41:25.914Z,6.60
2018-05-26T14:43:53.485Z,7.00
2018-05-26T14:46:21.843Z,6.70
2018-05-26T14:48:49.413Z,6.93
2018-05-26T14:51:16.963Z,6.83
2018-05-26T14:53:44.514Z,6.90
2018-05-26T14:56:12.842Z,7.17
2018-05-26T14:58:40.417Z,7.20
2018-05-26T15:01:07.999Z,7.17
2018-05-26T15:03:35.561Z,7.00
2018-05-26T15:06:03.105Z,6.40
2018-05-26T15:08:30.672Z,6.80
2018-05-26T15:10:58.232Z,6.67
2018-05-26T15:13:26.630Z,6.10
2018-05-26T15:15:54.161Z,6.80
2018-05-26T15:18:21.715Z,6.60
2018-05-26T15:20:49.292Z,6.73
2018-05-26T15:23:16.862Z,6.33
2018-05-26T15:25:44.433Z,5.90
2018-05-26T15:28:12.005Z,6.83
2018-05-26T15:30:39.571Z,6.27
2018-05-26T15:33:07.161Z,6.30
2018-05-26T15:35:34.723Z,6.43
2018-05-26T15:38:02.268Z,6.57
2018-05-26T15:40:30.614Z,6.00
2018-05-26T15:42:58.175Z,4.87
2018-05-26T15:45:25.750Z,6.47
2018-05-26T15:47:53.322Z,5.37
2018-05-26T15:50:20.880Z,6.90
2018-05-26T15:52:48.442Z,6.60
2018-05-26T15:55:15.983Z,7.13
2018-05-26T15:57:44.334Z,6.00
2018-05-26T16:00:12.105Z,6.60
2018-05-26T16:02:39.666Z,6.70
2018-05-26T16:05:07.233Z,6.00
2018-05-26T16:07:34.778Z,7.60
2018-05-26T16:10:03.125Z,6.63
2018-05-26T16:12:30.674Z,11.20
2018-05-26T16:14:58.228Z,6.83
2018-05-26T16:17:25.815Z,6.93
2018-05-26T16:19:53.387Z,6.70
2018-05-26T16:22:21.000Z,6.83
2018-05-26T16:24:48.537Z,6.23
2018-05-26T16:27:16.092Z,6.87
2018-05-26T16:29:43.717Z,6.50
2018-05-26T16:32:11.323Z,7.20
2018-05-26T16:34:39.680Z,7.43
2018-05-26T16:37:08.093Z,6.70
2018-05-26T16:39:36.469Z,6.20
2018-05-26T16:42:04.040Z,5.90
2018-05-26T16:44:31.612Z,6.23
2018-05-26T16:46:59.329Z,6.50
2018-05-26T16:49:26.988Z,7.23
2018-05-26T16:51:54.655Z,6.40
2018-05-26T16:54:22.310Z,7.00
2018-05-26T16:56:49.889Z,5.67
2018-05-26T16:59:17.513Z,6.63
2018-05-26T17:01:48.526Z,7.47
2018-05-26T17:04:16.343Z,6.73
2018-05-26T17:06:45.605Z,6.50
2018-05-26T17:09:13.141Z,6.40
2018-05-26T17:11:40.889Z,7.10
2018-05-26T17:14:09.224Z,6.83
2018-05-26T17:16:37.261Z,6.97
2018-05-26T17:19:04.943Z,6.73
2018-05-26T17:21:32.567Z,6.47
2018-05-26T17:24:00.167Z,51.73
2018-05-26T17:26:28.531Z,22.43
2018-05-26T17:28:56.764Z,13.07
2018-05-26T17:31:24.418Z,9.63
2018-05-26T17:33:51.975Z,7.53
2018-05-26T17:36:19.647Z,8.03
2018-05-26T17:38:47.333Z,16.93
2018-05-26T17:41:14.953Z,12.10
2018-05-26T17:43:42.526Z,10.20
2018-05-26T17:46:10.095Z,51.37
2018-05-26T17:48:37.674Z,20.67
2018-05-26T17:51:05.233Z,9.40
2018-05-26T17:53:32.794Z,7.10
2018-05-26T17:56:00.434Z,7.20
2018-05-26T17:58:28.011Z,16.80
2018-05-26T18:00:55.588Z,9.67
2018-05-26T18:03:23.134Z,6.60
2018-05-26T18:05:50.695Z,7.77
2018-05-26T18:08:18.292Z,6.97
2018-05-26T18:10:45.875Z,6.77
2018-05-26T18:13:13.454Z,8.43
2018-05-26T18:15:41.006Z,7.00
2018-05-26T18:18:08.563Z,7.10
2018-05-26T18:20:36.147Z,7.60
2018-05-26T18:23:03.710Z,6.90
2018-05-26T18:25:31.290Z,7.10
2018-05-26T18:27:58.839Z,8.60
2018-05-26T18:30:26.391Z,8.97
2018-05-26T18:32:54.735Z,7.87
2018-05-26T18:35:22.292Z,8.20
2018-05-26T18:37:49.894Z,9.80
2018-05-26T18:40:17.471Z,8.27
2018-05-26T18:42:45.035Z,8.43
2018-05-26T18:45:12.634Z,10.10
2018-05-26T18:47:40.949Z,16.47
2018-05-26T18:50:08.539Z,16.10
2018-05-26T18:52:36.099Z,9.00
2018-05-26T18:55:03.655Z,7.87
2018-05-26T18:57:31.997Z,8.03
2018-05-26T18:59:59.553Z,8.03
2018-05-26T19:02:27.136Z,8.00
2018-05-26T19:04:54.698Z,9.63
2018-05-26T19:07:22.263Z,10.40
2018-05-26T19:09:49.829Z,9.43
2018-05-26T19:12:17.377Z,12.37
2018-05-26T19:14:44.991Z,8.87
2018-05-26T19:17:12.551Z,13.27
2018-05-26T19:19:40.104Z,8.53
2018-05-26T19:22:07.691Z,9.43
2018-05-26T19:24:35.246Z,10.73
2018-05-26T19:27:02.799Z,10.10
2018-05-26T19:29:31.143Z,9.37
2018-05-26T19:31:58.706Z,12.17
2018-05-26T19:34:26.282Z,19.23
2018-05-26T19:36:53.958Z,10.27
2018-05-26T19:39:21.446Z,10.10
2018-05-26T19:41:49.026Z,10.10
2018-05-26T19:44:16.591Z,11.33
2018-05-26T19:46:44.151Z,10.30
2018-05-26T19:49:11.730Z,10.80
2018-05-26T19:51:39.291Z,11.93
2018-05-26T19:54:06.869Z,11.93
2018-05-26T19:56:34.435Z,11.90
2018-05-26T19:59:02.033Z,12.27
2018-05-26T20:01:29.592Z,12.27
2018-05-26T20:03:57.150Z,12.20
2018-05-26T20:06:24.751Z,12.70
2018-05-26T20:08:52.314Z,13.30
2018-05-26T20:11:19.875Z,12.10
2018-05-26T20:13:47.446Z,13.50
2018-05-26T20:16:14.999Z,15.73
2018-05-26T20:18:42.593Z,13.30
2018-05-26T20:21:10.145Z,14.03
2018-05-26T20:23:37.698Z,14.20
2018-05-26T20:26:06.048Z,17.23
2018-05-26T20:28:33.602Z,14.80
2018-05-26T20:31:01.191Z,13.50
2018-05-26T20:33:28.754Z,13.70
2018-05-26T20:35:57.247Z,13.70
2018-05-26T20:38:24.830Z,12.60
2018-05-26T20:40:52.395Z,14.10
2018-05-26T20:43:19.976Z,14.57
2018-05-26T20:45:47.531Z,13.33
2018-05-26T20:48:15.091Z,17.20
2018-05-26T20:50:42.673Z,13.47
2018-05-26T20:53:10.239Z,15.10
2018-05-26T20:55:37.826Z,13.10
2018-05-26T20:58:05.386Z,13.60
2018-05-26T21:00:32.942Z,13.30
2018-05-26T21:03:00.518Z,13.10
2018-05-26T21:05:28.104Z,15.50
2018-05-26T21:07:55.702Z,15.17
2018-05-26T21:10:23.272Z,13.73
2018-05-26T21:12:50.829Z,14.90
2018-05-26T21:15:18.402Z,14.73
2018-05-26T21:17:45.974Z,14.80
2018-05-26T21:20:13.567Z,14.57
2018-05-26T21:22:41.125Z,16.00
2018-05-26T21:25:08.691Z,18.30
2018-05-26T21:27:36.327Z,18.80
2018-05-26T21:30:03.883Z,21.77
2018-05-26T21:32:31.635Z,18.40
2018-05-26T21:34:59.239Z,19.33
2018-05-26T21:37:27.578Z,22.30
2018-05-26T21:39:55.258Z,20.87
2018-05-26T21:42:22.840Z,18.87
2018-05-26T21:44:50.430Z,20.83
2018-05-26T21:47:17.986Z,19.50
2018-05-26T21:49:45.550Z,20.23
2018-05-26T21:52:13.222Z,20.07
2018-05-26T21:54:40.794Z,21.83
2018-05-26T21:57:08.379Z,20.50
2018-05-26T21:59:36.899Z,18.77
2018-05-26T22:02:04.470Z,18.63
2018-05-26T22:04:32.038Z,15.10
2018-05-26T22:06:59.606Z,17.70
2018-05-26T22:09:27.215Z,16.77
2018-05-26T22:11:54.795Z,18.70
2018-05-26T22:14:22.409Z,20.00
2018-05-26T22:16:49.955Z,18.70
2018-05-26T22:19:17.510Z,19.47
2018-05-26T22:21:45.094Z,19.30
2018-05-26T22:24:12.656Z,18.57
2018-05-26T22:26:40.211Z,17.83
2018-05-26T22:29:08.559Z,18.60
2018-05-26T22:31:36.118Z,18.80
2018-05-26T22:34:03.711Z,17.57
2018-05-26T22:36:31.266Z,17.80
2018-05-26T22:38:58.827Z,18.97
2018-05-26T22:41:26.415Z,19.13
2018-05-26T22:43:53.972Z,16.40
2018-05-26T22:46:21.559Z,17.70
2018-05-26T22:48:49.118Z,19.10
2018-05-26T22:51:16.669Z,17.47
2018-05-26T22:53:44.262Z,19.27
2018-05-26T22:56:11.819Z,19.17
2018-05-26T22:58:39.401Z,20.50
2018-05-26T23:01:06.960Z,20.10
2018-05-26T23:03:34.531Z,19.50
2018-05-26T23:06:02.115Z,20.00
2018-05-26T23:08:29.674Z,21.13
2018-05-26T23:10:57.312Z,19.98
2018-05-26T23:13:24.862Z,19.57
2018-05-26T23:15:52.427Z,19.93
2018-05-26T23:18:20.005Z,18.20
2018-05-26T23:20:47.562Z,19.43
2018-05-26T23:23:15.179Z,18.60
2018-05-26T23:25:42.760Z,18.53
2018-05-26T23:28:10.646Z,18.60
2018-05-26T23:30:38.251Z,18.90
2018-05-26T23:33:05.838Z,19.55
2018-05-26T23:35:33.453Z,20.27
2018-05-26T23:38:01.822Z,18.70
2018-05-26T23:40:29.412Z,19.40
2018-05-26T23:42:56.994Z,21.50
2018-05-26T23:45:24.582Z,19.75
2018-05-26T23:47:52.202Z,20.45
2018-05-26T23:50:19.768Z,21.03
2018-05-26T23:52:47.335Z,19.10
2018-05-26T23:55:14.948Z,20.90
2018-05-26T23:57:42.510Z,22.03
